Time;durP1;ratioP1;P1;durP2;ratioP2;P2;SDS_P1;SDS_P2;PMS_P1;PMS_P2;Temp;Humidity;BMP_temperature;BMP_pressure;BME280_temperature;BME280_humidity;BME280_pressure;Samples;Min_cycle;Max_cycle;Signal;HPM_P1;HPM_P2
2021/11/20 00:02:15;;;;;;;;;11.75;9.50;;;;;17.55;100.00;102526.44;5059292;28;45394;-87
2021/11/20 00:04:43;;;;;;;;;20.75;11.25;;;;;17.49;100.00;102546.41;5055348;28;45325;-87
2021/11/20 00:07:09;;;;;;;;;14.75;11.25;;;;;17.46;100.00;102537.75;5054175;28;45604;-88
2021/11/20 00:09:35;;;;;;;;;13.50;10.25;;;;;17.44;100.00;102531.66;5057652;28;48219;-86
2021/11/20 00:12:05;;;;;;;;;14.50;12.00;;;;;17.62;100.00;102532.22;5045037;28;45462;-88
2021/11/20 00:14:32;;;;;;;;;18.25;12.00;;;;;17.72;100.00;102530.66;5053966;28;45523;-86
2021/11/20 00:17:01;;;;;;;;;16.75;14.00;;;;;17.74;100.00;102526.94;5053989;28;45662;-87
2021/11/20 00:19:28;;;;;;;;;13.50;12.50;;;;;17.70;100.00;102513.88;5047969;28;45542;-86
2021/11/20 00:21:56;;;;;;;;;11.75;11.00;;;;;17.82;100.00;102531.72;5067640;28;45408;-87
2021/11/20 00:24:24;;;;;;;;;11.00;10.00;;;;;17.76;100.00;102527.66;5069534;28;45438;-84
2021/11/20 00:26:50;;;;;;;;;10.25;8.50;;;;;17.83;100.00;102528.09;5049860;28;45393;-85
2021/11/20 00:31:46;;;;;;;;;10.25;8.00;;;;;17.94;100.00;102520.16;5058486;28;45559;-85
2021/11/20 00:34:15;;;;;;;;;13.25;9.50;;;;;17.84;100.00;102508.44;5054921;28;45331;-85
2021/11/20 00:36:40;;;;;;;;;8.50;8.00;;;;;17.78;100.00;102511.50;5051436;28;45639;-85
2021/11/20 00:39:09;;;;;;;;;17.75;14.00;;;;;17.87;100.00;102503.72;5060743;28;46290;-84
2021/11/20 00:41:36;;;;;;;;;16.00;10.50;;;;;17.88;100.00;102508.09;5057482;28;45489;-84
2021/11/20 00:44:02;;;;;;;;;11.75;9.00;;;;;17.78;100.00;102500.81;5049477;28;45518;-84
2021/11/20 00:46:31;;;;;;;;;15.75;9.75;;;;;17.86;100.00;102510.00;5049368;28;45379;-84
2021/11/20 00:48:57;;;;;;;;;10.75;9.00;;;;;17.80;100.00;102494.41;5059605;28;47202;-84
2021/11/20 00:51:26;;;;;;;;;11.00;7.50;;;;;20.14;100.00;102483.88;5063333;28;45598;-85
2021/11/20 00:53:53;;;;;;;;;15.25;9.25;;;;;20.42;100.00;102491.44;5054782;28;45438;-85
2021/11/20 00:56:21;;;;;;;;;11.50;8.75;;;;;20.36;100.00;102475.00;5054268;28;46035;-85
2021/11/20 00:58:47;;;;;;;;;10.75;9.00;;;;;20.18;100.00;102482.69;5055282;28;45701;-85
2021/11/20 01:01:16;;;;;;;;;8.75;7.00;;;;;20.30;100.00;102479.03;5047796;28;45261;-86
2021/11/20 01:03:42;;;;;;;;;7.00;1.00;;;;;20.00;100.00;102476.97;5046451;28;46034;-86
2021/11/20 01:06:07;;;;;;;;;10.50;8.00;;;;;19.95;100.00;102470.25;5050711;28;45532;-85
2021/11/20 01:08:40;;;;;;;;;14.25;10.00;;;;;20.09;100.00;102470.88;5053241;28;45347;-86
2021/11/20 01:11:34;;;;;;;;;16.50;10.00;;;;;20.12;100.00;102475.13;5055695;28;45360;-86
2021/11/20 01:14:04;;;;;;;;;14.50;11.25;;;;;20.12;100.00;102475.13;5059822;28;45513;-86
2021/11/20 01:16:31;;;;;;;;;13.25;8.00;;;;;19.93;100.00;102473.06;5068972;28;45502;-86
2021/11/20 01:18:58;;;;;;;;;16.25;10.00;;;;;19.79;100.00;102465.25;5057291;28;45709;-86
2021/11/20 01:21:23;;;;;;;;;17.00;14.75;;;;;19.87;100.00;102456.59;5054999;28;45501;-86
2021/11/20 01:23:50;;;;;;;;;20.50;14.00;;;;;19.94;100.00;102461.34;5066717;28;45239;-86
2021/11/20 01:26:17;;;;;;;;;14.50;12.00;;;;;19.97;100.00;102460.25;5085103;28;45402;-86
2021/11/20 01:28:45;;;;;;;;;17.75;15.50;;;;;19.89;100.00;102451.97;5066043;28;47205;-86
2021/11/20 01:31:12;;;;;;;;;22.50;15.25;;;;;19.98;100.00;102462.81;5071846;28;45247;-86
2021/11/20 01:33:40;;;;;;;;;15.50;11.00;;;;;19.82;100.00;102461.50;5082029;28;45602;-85
2021/11/20 01:36:07;;;;;;;;;17.50;11.50;;;;;19.64;100.00;102451.25;5083259;28;45382;-85
2021/11/20 01:38:34;;;;;;;;;19.75;15.25;;;;;19.43;100.00;102450.19;5084424;28;47090;-84
2021/11/20 01:41:01;;;;;;;;;15.50;11.00;;;;;19.47;100.00;102443.66;5081696;28;45195;-85
2021/11/20 01:43:27;;;;;;;;;16.75;15.25;;;;;19.35;100.00;102442.78;5094432;28;44778;-85
2021/11/20 01:45:59;;;;;;;;;26.75;16.50;;;;;19.42;100.00;102452.03;5097720;28;45282;-85
2021/11/20 01:48:54;;;;;;;;;21.75;16.75;;;;;19.53;100.00;102453.06;5097337;28;47033;-85
2021/11/20 01:51:40;;;;;;;;;21.25;17.25;;;;;19.36;100.00;102440.94;5088258;28;44846;-85
2021/11/20 01:54:10;;;;;;;;;23.50;15.00;;;;;19.38;100.00;102441.69;5083723;27;45215;-83
2021/11/20 01:56:51;;;;;;;;;23.50;17.50;;;;;19.38;100.00;102434.50;5069053;28;45422;-85
2021/11/20 01:59:30;;;;;;;;;19.75;16.25;;;;;19.33;100.00;102434.00;5082069;28;46661;-85
2021/11/20 02:02:09;;;;;;;;;26.50;18.00;;;;;19.40;100.00;102431.69;5079642;28;45547;-85
2021/11/20 02:05:00;;;;;;;;;27.00;17.50;;;;;19.38;100.00;102428.28;5078456;28;45488;-84
2021/11/20 02:07:42;;;;;;;;;24.00;14.50;;;;;19.32;100.00;102432.28;5067379;28;46084;-85
2021/11/20 02:10:11;;;;;;;;;22.50;16.00;;;;;19.31;100.00;102432.41;5071123;28;46418;-85
2021/11/20 02:12:46;;;;;;;;;22.25;16.00;;;;;19.06;100.00;102426.25;5074945;28;45440;-85
2021/11/20 02:15:21;;;;;;;;;20.75;14.75;;;;;19.05;100.00;102423.69;5061703;28;45424;-84
2021/11/20 02:17:51;;;;;;;;;15.75;15.00;;;;;18.81;100.00;102429.09;5079379;28;45478;-84
2021/11/20 02:20:26;;;;;;;;;18.00;16.50;;;;;18.91;100.00;102419.41;5081554;28;45349;-85
2021/11/20 02:22:52;;;;;;;;;23.25;16.75;;;;;18.56;100.00;102427.38;5080477;28;46233;-85
2021/11/20 02:25:20;;;;;;;;;22.33;14.33;;;;;18.62;100.00;102426.94;5080198;28;45448;-85
2021/11/20 02:27:48;;;;;;;;;19.00;15.00;;;;;18.71;100.00;102428.09;5075940;28;45468;-85
2021/11/20 02:30:25;;;;;;;;;16.50;14.00;;;;;18.66;100.00;102430.28;5067963;28;48152;-86
2021/11/20 02:32:55;;;;;;;;;20.50;16.75;;;;;18.63;100.00;102423.31;5073487;28;45289;-86
2021/11/20 02:35:26;;;;;;;;;22.25;14.00;;;;;18.58;100.00;102416.56;5077226;27;45434;-85
2021/11/20 02:37:52;;;;;;;;;18.75;17.00;;;;;18.50;100.00;102408.25;5057838;28;45530;-86
2021/11/20 02:40:17;;;;;;;;;17.25;10.00;;;;;18.57;100.00;102404.19;5073450;27;47074;-85
2021/11/20 02:42:44;;;;;;;;;19.75;14.25;;;;;18.44;100.00;102420.25;5060627;28;45455;-86
2021/11/20 02:45:14;;;;;;;;;20.50;15.75;;;;;18.30;100.00;102421.25;5060810;28;45475;-85
2021/11/20 02:47:40;;;;;;;;;22.00;15.50;;;;;18.16;100.00;102412.56;5073000;28;45524;-86
2021/11/20 02:50:06;;;;;;;;;15.25;12.25;;;;;18.14;100.00;102409.13;5080123;28;45493;-86
2021/11/20 02:52:31;;;;;;;;;18.25;15.50;;;;;18.23;100.00;102403.13;5068602;28;45141;-86
2021/11/20 02:54:57;;;;;;;;;21.25;14.00;;;;;18.45;100.00;102402.41;5065362;28;45523;-86
2021/11/20 02:57:32;;;;;;;;;23.25;17.25;;;;;18.33;100.00;102404.16;5059103;28;45193;-85
2021/11/20 02:59:58;;;;;;;;;20.50;14.75;;;;;18.25;100.00;102407.38;5071677;28;45415;-86
2021/11/20 03:02:24;;;;;;;;;22.50;15.50;;;;;18.21;100.00;102402.38;5075529;28;45456;-85
2021/11/20 03:04:49;;;;;;;;;22.50;16.75;;;;;18.28;100.00;102387.59;5066897;28;45417;-86
2021/11/20 03:07:15;;;;;;;;;15.00;8.75;;;;;18.38;100.00;102380.59;5067655;28;45509;-85
2021/11/20 03:09:41;;;;;;;;;21.00;12.25;;;;;18.34;100.00;102379.13;5060531;28;47242;-85
2021/11/20 03:12:11;;;;;;;;;10.00;9.75;;;;;18.31;100.00;102384.69;5067402;28;45429;-86
2021/11/20 03:14:37;;;;;;;;;21.75;13.00;;;;;18.12;100.00;102384.34;5076714;28;45242;-85
2021/11/20 03:17:05;;;;;;;;;15.50;12.50;;;;;18.12;100.00;102382.50;5064513;28;45189;-85
2021/11/20 03:19:35;;;;;;;;;14.75;10.75;;;;;18.31;100.00;102369.47;5060066;28;45442;-85
2021/11/20 03:22:05;;;;;;;;;14.00;9.75;;;;;18.44;100.00;102372.13;5066475;28;45389;-85
2021/11/20 03:24:32;;;;;;;;;16.75;12.00;;;;;18.42;100.00;102360.66;5070091;28;45440;-85
2021/11/20 03:26:59;;;;;;;;;21.25;12.50;;;;;18.49;100.00;102367.25;5076354;28;45745;-85
2021/11/20 03:29:25;;;;;;;;;18.00;13.00;;;;;18.47;100.00;102361.19;5064085;28;47159;-85
2021/11/20 03:31:53;;;;;;;;;9.75;8.50;;;;;18.49;100.00;102350.34;5078878;28;45534;-85
2021/11/20 03:34:21;;;;;;;;;15.00;7.00;;;;;18.44;100.00;102353.38;5079884;27;45240;-85
2021/11/20 03:36:46;;;;;;;;;9.50;8.25;;;;;18.35;100.00;102345.19;5062684;28;45466;-86
2021/11/20 03:39:11;;;;;;;;;14.00;7.50;;;;;18.32;100.00;102343.59;5057655;28;47935;-85
2021/11/20 03:41:38;;;;;;;;;6.25;4.00;;;;;18.30;100.00;102337.50;5059951;28;45444;-86
2021/11/20 03:44:04;;;;;;;;;10.75;7.00;;;;;18.20;100.00;102345.38;5069389;28;45401;-86
2021/11/20 03:46:30;;;;;;;;;10.00;6.50;;;;;18.12;100.00;102337.06;5062252;28;45260;-86
2021/11/20 03:48:55;;;;;;;;;8.50;5.75;;;;;18.17;100.00;102334.91;5079168;28;45769;-86
2021/11/20 03:51:20;;;;;;;;;8.25;5.25;;;;;18.09;100.00;102331.09;5079514;28;45327;-86
2021/11/20 03:53:46;;;;;;;;;4.50;4.00;;;;;18.05;100.00;102330.47;5064245;28;45315;-86
2021/11/20 03:56:11;;;;;;;;;4.25;2.50;;;;;17.68;100.00;102336.78;5071385;28;45248;-85
2021/11/20 03:58:38;;;;;;;;;5.25;4.00;;;;;17.72;100.00;102323.09;5060365;28;45411;-85
2021/11/20 04:01:13;;;;;;;;;3.25;3.25;;;;;17.97;100.00;102321.28;5058320;28;45456;-85
2021/11/20 04:03:40;;;;;;;;;5.75;4.00;;;;;17.71;100.00;102331.22;5062634;28;45512;-85
2021/11/20 04:06:12;;;;;;;;;3.00;3.00;;;;;17.79;100.00;102311.00;5059292;28;45513;-86
2021/11/20 04:08:38;;;;;;;;;4.50;4.50;;;;;17.84;100.00;102319.53;5042638;28;46526;-85
2021/11/20 04:11:04;;;;;;;;;6.50;3.00;;;;;17.73;100.00;102318.63;5049296;28;45210;-86
2021/11/20 04:13:29;;;;;;;;;8.00;5.25;;;;;17.89;100.00;102316.53;5063448;28;45482;-85
2021/11/20 04:15:55;;;;;;;;;5.00;3.00;;;;;17.84;100.00;102308.00;5079787;28;45503;-86
2021/11/20 04:18:21;;;;;;;;;5.25;3.00;;;;;17.67;100.00;102293.19;5063015;28;46099;-86
2021/11/20 04:20:46;;;;;;;;;2.75;2.00;;;;;17.66;100.00;102301.31;5059292;28;45404;-85
2021/11/20 04:23:12;;;;;;;;;6.50;2.25;;;;;17.65;100.00;102288.94;5068857;28;45343;-85
2021/11/20 04:25:39;;;;;;;;;5.50;3.75;;;;;17.73;100.00;102286.53;5078250;28;45742;-86
2021/11/20 04:28:05;;;;;;;;;7.25;3.00;;;;;17.65;100.00;102286.25;5065436;28;45477;-86
2021/11/20 04:30:30;;;;;;;;;6.00;3.75;;;;;17.83;100.00;102288.44;5072685;28;45305;-86
2021/11/20 04:32:57;;;;;;;;;3.00;3.00;;;;;17.74;100.00;102274.91;5082428;28;46377;-86
2021/11/20 04:35:24;;;;;;;;;6.00;4.00;;;;;17.67;100.00;102278.97;5073182;28;45241;-86
2021/11/20 04:37:50;;;;;;;;;6.75;4.00;;;;;17.57;100.00;102278.78;5059690;28;45410;-86
2021/11/20 04:40:16;;;;;;;;;5.25;3.50;;;;;17.65;100.00;102276.44;5062227;28;46008;-85
2021/11/20 04:42:42;;;;;;;;;4.25;3.00;;;;;17.68;100.00;102275.31;5063885;28;45333;-86
2021/11/20 04:45:10;;;;;;;;;2.50;2.50;;;;;17.71;100.00;102278.63;5062930;28;45460;-85
2021/11/20 04:47:36;;;;;;;;;3.00;2.00;;;;;17.59;100.00;102274.16;5081675;28;47635;-86
2021/11/20 04:50:03;;;;;;;;;1.00;1.00;;;;;17.59;100.00;102272.34;5080133;28;45312;-85
2021/11/20 04:52:28;;;;;;;;;2.75;2.00;;;;;17.59;100.00;102267.00;5082878;28;45212;-85
2021/11/20 04:54:55;;;;;;;;;3.00;1.75;;;;;17.89;100.00;102281.78;5068802;28;45369;-86
2021/11/20 04:57:20;;;;;;;;;4.00;2.50;;;;;17.67;100.00;102261.13;5075201;28;47437;-86
2021/11/20 04:59:45;;;;;;;;;2.00;2.00;;;;;17.30;100.00;102278.91;5079970;28;45516;-85
2021/11/20 05:02:11;;;;;;;;;2.50;2.50;;;;;17.26;100.00;102264.09;5072960;28;45377;-85
2021/11/20 05:04:36;;;;;;;;;5.00;1.00;;;;;17.63;100.00;102259.66;5076206;28;45441;-85
2021/11/20 05:07:03;;;;;;;;;2.50;2.00;;;;;17.95;100.00;102254.59;5082853;28;47085;-86
2021/11/20 05:09:28;;;;;;;;;3.00;2.00;;;;;17.90;100.00;102259.44;5084976;27;45783;-85
2021/11/20 05:11:54;;;;;;;;;2.75;2.25;;;;;17.70;100.00;102258.22;5082491;28;45434;-86
2021/11/20 05:14:19;;;;;;;;;2.75;2.00;;;;;17.71;100.00;102259.94;5080945;28;45336;-86
2021/11/20 05:16:44;;;;;;;;;3.00;2.25;;;;;17.84;100.00;102255.41;5077956;28;46890;-85
2021/11/20 05:19:10;;;;;;;;;2.00;2.00;;;;;17.89;100.00;102250.56;5069235;28;45298;-86
2021/11/20 05:21:35;;;;;;;;;4.00;3.00;;;;;17.98;100.00;102251.69;5061059;28;45338;-86
2021/11/20 05:24:00;;;;;;;;;2.00;2.00;;;;;18.19;100.00;102258.13;5075059;28;45419;-85
2021/11/20 05:26:26;;;;;;;;;3.25;2.25;;;;;18.24;100.00;102252.41;5051195;27;45356;-85
2021/11/20 05:29:39;;;;;;;;;7.75;3.00;;;;;18.26;100.00;102242.44;5063888;28;45363;-85
2021/11/20 05:31:40;;;;;;;;;2.75;0.00;;;;;18.27;100.00;102246.81;5060622;28;45518;-86
2021/11/20 05:34:06;;;;;;;;;2.50;2.50;;;;;18.35;100.00;102244.41;5063227;28;45692;-85
2021/11/20 05:36:32;;;;;;;;;2.50;2.50;;;;;18.27;100.00;102233.47;5061587;28;45523;-85
2021/11/20 05:38:59;;;;;;;;;3.00;2.75;;;;;18.18;100.00;102242.19;5061577;28;45519;-85
2021/11/20 05:41:26;;;;;;;;;8.75;3.00;;;;;17.83;100.00;102235.00;5076858;28;45421;-86
2021/11/20 05:43:51;;;;;;;;;3.75;2.00;;;;;18.13;100.00;102230.97;5062810;28;45337;-85
2021/11/20 05:46:20;;;;;;;;;3.50;3.00;;;;;17.88;100.00;102235.50;5078399;28;47170;-86
2021/11/20 05:48:45;;;;;;;;;5.25;3.00;;;;;17.77;100.00;102238.09;5084278;27;45365;-85
2021/11/20 05:51:11;;;;;;;;;8.75;3.00;;;;;17.64;100.00;102231.97;5068957;28;45462;-85
2021/11/20 05:53:36;;;;;;;;;4.25;3.00;;;;;17.45;100.00;102236.91;5080137;28;45552;-85
2021/11/20 05:56:03;;;;;;;;;6.25;2.75;;;;;17.52;100.00;102232.81;5068567;28;46085;-85
2021/11/20 05:58:29;;;;;;;;;6.75;3.00;;;;;17.31;100.00;102245.91;5069275;28;45554;-85
2021/11/20 06:00:58;;;;;;;;;1.50;1.50;;;;;17.28;100.00;102247.97;5072926;28;45307;-85
2021/11/20 06:03:25;;;;;;;;;3.00;2.50;;;;;17.22;100.00;102238.56;5061475;28;45597;-85
2021/11/20 06:05:51;;;;;;;;;3.75;3.00;;;;;17.30;100.00;102236.19;5079297;28;47547;-85
2021/11/20 06:08:19;;;;;;;;;4.00;2.75;;;;;17.29;100.00;102237.19;5062577;28;46016;-85
2021/11/20 06:10:46;;;;;;;;;3.75;3.00;;;;;17.32;100.00;102228.06;5060100;28;45304;-85
2021/11/20 06:13:11;;;;;;;;;7.75;3.75;;;;;17.46;100.00;102235.97;5078867;28;45486;-85
2021/11/20 06:15:39;;;;;;;;;3.25;2.50;;;;;17.42;100.00;102234.47;5076529;28;46512;-85
2021/11/20 06:18:05;;;;;;;;;5.25;3.25;;;;;17.26;100.00;102234.72;5061001;28;45493;-84
2021/11/20 06:20:32;;;;;;;;;9.75;3.50;;;;;17.33;100.00;102238.66;5067656;28;45407;-85
2021/11/20 06:22:57;;;;;;;;;7.25;5.00;;;;;17.39;100.00;102232.03;5065381;27;45608;-85
2021/11/20 06:25:23;;;;;;;;;8.25;3.75;;;;;17.32;100.00;102233.41;5062190;28;46012;-85
2021/11/20 06:27:49;;;;;;;;;7.75;6.00;;;;;17.32;100.00;102234.28;5068470;28;45390;-85
2021/11/20 06:30:18;;;;;;;;;5.25;3.75;;;;;17.40;100.00;102239.91;5068649;28;45453;-85
2021/11/20 06:32:47;;;;;;;;;7.50;4.00;;;;;17.47;100.00;102238.53;5060103;28;45516;-84
2021/11/20 06:35:15;;;;;;;;;10.75;4.00;;;;;17.45;100.00;102248.47;5075802;28;48311;-85
2021/11/20 06:37:44;;;;;;;;;7.75;6.00;;;;;17.44;100.00;102237.88;5061238;28;45228;-85
2021/11/20 06:40:12;;;;;;;;;7.00;6.00;;;;;17.27;100.00;102238.25;5078138;28;45536;-85
2021/11/20 06:42:38;;;;;;;;;9.25;7.00;;;;;16.96;100.00;102237.75;5078428;28;45416;-85
2021/11/20 06:45:08;;;;;;;;;9.00;9.00;;;;;17.11;100.00;102243.84;5066160;28;47319;-85
2021/11/20 06:47:34;;;;;;;;;11.25;6.75;;;;;17.13;100.00;102234.72;5073607;28;45625;-85
2021/11/20 06:49:59;;;;;;;;;11.25;9.00;;;;;17.17;100.00;102230.91;5082713;28;45520;-85
2021/11/20 06:52:25;;;;;;;;;10.00;9.25;;;;;17.43;100.00;102226.34;5064812;28;45523;-85
2021/11/20 06:54:50;;;;;;;;;9.00;7.00;;;;;17.46;100.00;102230.63;5060997;28;45500;-85
2021/11/20 06:57:36;;;;;;;;;9.00;7.00;;;;;17.50;100.00;102224.91;5062209;28;45431;-85
2021/11/20 07:02:49;;;;;;;;;13.00;9.00;;;;;17.47;100.00;102216.31;5063763;28;45493;-86
2021/11/20 07:05:14;;;;;;;;;10.25;8.25;;;;;17.59;100.00;102215.38;5062704;28;47169;-85
2021/11/20 07:07:40;;;;;;;;;13.00;11.50;;;;;17.68;100.00;102211.22;5062870;28;45393;-86
2021/11/20 07:10:06;;;;;;;;;11.25;6.75;;;;;17.67;100.00;102209.50;5062314;28;45309;-86
2021/11/20 07:12:32;;;;;;;;;15.50;11.00;;;;;17.46;100.00;102204.75;5054922;28;46090;-85
2021/11/20 07:14:57;;;;;;;;;16.25;11.50;;;;;17.49;100.00;102211.69;5057937;28;45538;-85
2021/11/20 07:17:23;;;;;;;;;8.75;6.75;;;;;17.57;100.00;102218.16;5063600;28;46539;-85
2021/11/20 07:19:48;;;;;;;;;8.25;8.00;;;;;17.53;100.00;102211.34;5053722;28;45411;-86
2021/11/20 07:22:14;;;;;;;;;16.00;9.50;;;;;17.53;100.00;102221.19;5048863;28;45994;-84
2021/11/20 07:24:39;;;;;;;;;17.50;9.00;;;;;17.41;100.00;102224.72;5067981;27;46991;-84
2021/11/20 07:27:05;;;;;;;;;14.75;9.00;;;;;17.32;100.00;102212.06;5058624;28;45501;-84
2021/11/20 07:29:30;;;;;;;;;13.00;8.25;;;;;17.39;100.00;102226.69;5061845;28;45319;-85
2021/11/20 07:31:55;;;;;;;;;11.00;7.00;;;;;17.36;100.00;102221.56;5067692;27;45361;-85
2021/11/20 07:34:21;;;;;;;;;14.50;9.00;;;;;17.44;100.00;102216.50;5063581;28;46185;-85
2021/11/20 07:36:46;;;;;;;;;14.50;8.25;;;;;17.54;100.00;102225.56;5080248;28;45703;-87
2021/11/20 07:39:14;;;;;;;;;13.00;8.50;;;;;17.69;100.00;102235.13;5069343;28;45417;-85
2021/11/20 07:41:40;;;;;;;;;10.00;9.75;;;;;17.58;100.00;102227.88;5077464;28;45560;-87
2021/11/20 07:44:06;;;;;;;;;9.00;8.25;;;;;17.51;100.00;102231.13;5085228;28;45443;-85
2021/11/20 07:46:31;;;;;;;;;8.00;6.00;;;;;17.65;100.00;102232.81;5083158;28;45273;-87
2021/11/20 07:48:59;;;;;;;;;9.00;8.00;;;;;17.66;100.00;102231.88;5068785;27;45476;-86
2021/11/20 07:51:25;;;;;;;;;10.00;7.25;;;;;17.50;100.00;102230.25;5076076;28;45392;-87
2021/11/20 07:53:50;;;;;;;;;9.00;6.75;;;;;17.47;100.00;102229.66;5064459;28;45417;-86
2021/11/20 07:56:19;;;;;;;;;12.00;9.00;;;;;17.44;100.00;102237.88;5059319;28;45420;-86
2021/11/20 07:58:46;;;;;;;;;14.75;10.00;;;;;17.42;100.00;102234.47;5059161;28;45322;-85
2021/11/20 08:01:12;;;;;;;;;10.75;8.50;;;;;17.38;100.00;102233.84;5063333;28;45937;-86
2021/11/20 08:03:37;;;;;;;;;11.00;4.50;;;;;17.53;100.00;102235.38;5059610;28;45492;-85
2021/11/20 08:06:03;;;;;;;;;9.50;4.00;;;;;17.38;100.00;102230.31;5056955;28;45437;-85
2021/11/20 08:08:31;;;;;;;;;11.25;5.50;;;;;17.42;100.00;102235.31;5058527;28;45410;-85
2021/11/20 08:10:56;;;;;;;;;8.00;8.00;;;;;17.39;100.00;102226.69;5056359;28;45448;-85
2021/11/20 08:13:21;;;;;;;;;8.00;8.00;;;;;17.53;100.00;102226.53;5060842;28;48137;-85
2021/11/20 08:15:47;;;;;;;;;10.00;7.25;;;;;17.58;100.00;102227.88;5085967;28;45878;-85
2021/11/20 08:18:13;;;;;;;;;7.75;5.75;;;;;17.64;100.00;102233.78;5087320;28;45464;-85
2021/11/20 08:20:44;;;;;;;;;7.25;6.75;;;;;17.80;100.00;102229.00;5087719;28;44862;-84
2021/11/20 08:23:13;;;;;;;;;8.00;5.75;;;;;17.73;100.00;102215.25;5092740;28;45189;-86
2021/11/20 08:25:38;;;;;;;;;14.25;9.00;;;;;17.77;100.00;102221.22;5084800;28;44971;-86
2021/11/20 08:28:05;;;;;;;;;7.50;7.50;;;;;17.97;100.00;102225.94;5097355;27;44750;-86
2021/11/20 08:30:31;;;;;;;;;8.75;4.00;;;;;17.86;100.00;102221.38;5098571;28;45524;-85
2021/11/20 08:32:58;;;;;;;;;8.00;8.00;;;;;17.81;100.00;102212.88;5080613;28;47224;-86
2021/11/20 08:35:26;;;;;;;;;6.50;4.00;;;;;17.88;100.00;102211.44;5084254;28;44908;-86
2021/11/20 08:37:52;;;;;;;;;7.75;4.50;;;;;17.77;100.00;102207.84;5083665;28;44713;-86
2021/11/20 08:40:21;;;;;;;;;8.25;5.25;;;;;17.83;100.00;102210.09;5099163;28;44851;-86
2021/11/20 08:42:47;;;;;;;;;13.75;8.00;;;;;17.74;100.00;102200.94;5080077;28;45262;-85
2021/11/20 08:45:17;;;;;;;;;8.75;8.00;;;;;17.81;100.00;102194.16;5081829;28;45629;-86
2021/11/20 08:47:44;;;;;;;;;10.75;8.00;;;;;17.82;100.00;102195.00;5080315;28;45436;-85
2021/11/20 08:50:13;;;;;;;;;14.00;9.50;;;;;17.88;100.00;102183.84;5051499;28;45365;-86
2021/11/20 08:52:40;;;;;;;;;12.50;10.00;;;;;17.88;100.00;102186.53;5062538;28;45494;-86
2021/11/20 08:55:06;;;;;;;;;10.75;8.00;;;;;17.82;100.00;102181.66;5047668;28;45398;-86
2021/11/20 08:57:31;;;;;;;;;15.50;12.25;;;;;17.86;100.00;102180.44;5079143;28;45442;-86
2021/11/20 08:59:56;;;;;;;;;14.75;11.75;;;;;17.88;100.00;102174.03;5079011;28;45280;-87
2021/11/20 09:02:34;;;;;;;;;14.00;9.75;;;;;18.01;100.00;102170.44;5065560;28;47248;-85
2021/11/20 09:05:24;;;;;;;;;11.50;9.50;;;;;18.11;100.00;102169.63;5064160;28;45447;-85
2021/11/20 09:08:04;;;;;;;;;17.00;11.50;;;;;18.04;100.00;102168.34;5062282;28;45361;-85
2021/11/20 09:10:48;;;;;;;;;13.75;11.75;;;;;17.99;100.00;102165.19;5064162;28;45510;-85
2021/11/20 09:13:20;;;;;;;;;8.50;7.25;;;;;17.86;100.00;102170.59;5066528;28;47141;-86
2021/11/20 09:15:55;;;;;;;;;11.50;9.50;;;;;17.84;100.00;102167.22;5063574;28;45307;-85
2021/11/20 09:18:21;;;;;;;;;10.50;8.50;;;;;17.75;100.00;102162.56;5058710;27;45505;-86
2021/11/20 09:20:51;;;;;;;;;16.25;11.25;;;;;17.72;100.00;102157.44;5048521;28;45515;-86
2021/11/20 09:23:17;;;;;;;;;13.50;9.00;;;;;17.83;100.00;102153.97;5056353;28;45473;-85
2021/11/20 09:25:43;;;;;;;;;17.25;10.00;;;;;17.65;100.00;102150.88;5056316;28;45457;-86
2021/11/20 09:28:12;;;;;;;;;15.75;13.75;;;;;17.75;100.00;102159.03;5062195;28;45501;-85
2021/11/20 09:30:42;;;;;;;;;21.00;15.00;;;;;17.79;100.00;102160.50;5063675;28;45431;-86
2021/11/20 09:33:09;;;;;;;;;24.25;14.75;;;;;17.72;100.00;102152.09;5061890;28;46109;-86
2021/11/20 09:35:35;;;;;;;;;17.00;9.50;;;;;17.75;100.00;102153.69;5064721;28;45267;-86
2021/11/20 09:38:00;;;;;;;;;14.00;9.00;;;;;17.74;100.00;102149.31;5063713;28;45481;-84
2021/11/20 09:40:29;;;;;;;;;11.00;9.25;;;;;17.86;100.00;102151.03;5062090;28;45473;-84
2021/11/20 09:43:00;;;;;;;;;13.00;10.25;;;;;17.90;100.00;102140.03;5061674;28;46215;-85
2021/11/20 09:45:30;;;;;;;;;15.75;10.00;;;;;17.84;100.00;102139.66;5062077;28;45405;-86
2021/11/20 09:48:01;;;;;;;;;14.50;11.25;;;;;17.97;100.00;102144.88;5065257;28;45615;-85
2021/11/20 09:50:30;;;;;;;;;19.75;14.00;;;;;17.99;100.00;102145.63;5061930;28;45495;-86
2021/11/20 09:52:57;;;;;;;;;11.25;9.00;;;;;18.08;100.00;102139.56;5056937;28;45600;-86
2021/11/20 09:55:27;;;;;;;;;11.25;9.25;;;;;18.28;100.00;102133.53;5054943;28;45716;-85
2021/11/20 09:57:58;;;;;;;;;19.75;8.00;;;;;18.29;100.00;102137.94;5060988;28;45323;-85
2021/11/20 10:00:47;;;;;;;;;15.50;9.75;;;;;18.12;100.00;102141.06;5060612;28;45444;-84
2021/11/20 10:03:28;;;;;;;;;16.50;9.25;;;;;18.27;100.00;102129.16;5058079;28;45413;-84
2021/11/20 10:06:12;;;;;;;;;9.50;9.00;;;;;18.29;100.00;102132.59;5059743;28;45272;-84
2021/11/20 10:08:42;;;;;;;;;14.75;8.00;;;;;18.21;100.00;102116.25;5064854;28;45379;-85
2021/11/20 10:11:08;;;;;;;;;14.00;9.00;;;;;18.20;100.00;102118.09;5074230;28;45475;-85
2021/11/20 10:13:46;;;;;;;;;14.75;10.75;;;;;18.37;100.00;102126.63;5061110;28;46301;-86
2021/11/20 10:16:18;;;;;;;;;13.50;9.00;;;;;18.27;100.00;102118.47;5061146;28;45704;-85
2021/11/20 10:18:56;;;;;;;;;13.75;8.00;;;;;18.26;100.00;102108.75;5063058;28;45538;-85
2021/11/20 10:21:32;;;;;;;;;15.25;8.50;;;;;18.25;100.00;102110.56;5065007;28;45583;-85
2021/11/20 10:24:04;;;;;;;;;10.75;10.25;;;;;18.39;100.00;102112.13;5064484;28;46711;-85
2021/11/20 10:27:25;;;;;;;;;15.75;11.00;;;;;18.46;100.00;102100.00;5079554;28;45554;-85
2021/11/20 10:30:07;;;;;;;;;15.00;10.50;;;;;18.69;100.00;102101.72;5036035;28;45513;-86
2021/11/20 10:32:38;;;;;;;;;14.00;14.00;;;;;18.69;100.00;102103.53;5052199;28;45327;-85
2021/11/20 10:35:15;;;;;;;;;10.25;10.00;;;;;18.79;100.00;102090.28;5051510;28;47309;-85
2021/11/20 10:37:47;;;;;;;;;19.25;14.25;;;;;18.70;100.00;102083.84;5057780;28;45334;-84
2021/11/20 10:40:15;;;;;;;;;16.00;11.00;;;;;18.73;100.00;102085.44;5060905;28;45462;-86
2021/11/20 10:42:50;;;;;;;;;14.00;11.00;;;;;18.76;100.00;102082.47;5071640;28;45789;-86
2021/11/20 10:45:31;;;;;;;;;12.50;10.75;;;;;18.85;100.00;102071.03;5057079;28;45407;-87
2021/11/20 10:48:06;;;;;;;;;7.00;7.00;;;;;18.87;100.00;102080.66;5059830;28;45385;-85
2021/11/20 10:50:40;;;;;;;;;22.75;13.75;;;;;18.83;100.00;102083.72;5057294;28;45781;-86
2021/11/20 10:53:54;;;;;;;;;21.25;10.25;;;;;18.92;100.00;102067.75;5053186;28;45532;-85
2021/11/20 10:56:40;;;;;;;;;20.00;13.50;;;;;18.80;100.00;102073.25;5062344;28;47206;-86
2021/11/20 10:59:35;;;;;;;;;14.50;13.25;;;;;18.85;100.00;102058.50;5066446;27;45725;-86
2021/11/20 11:02:10;;;;;;;;;17.25;14.25;;;;;18.71;100.00;102058.78;5063761;28;44823;-86
2021/11/20 11:05:16;;;;;;;;;24.50;13.00;;;;;18.71;100.00;102053.44;5073245;28;45431;-86
2021/11/20 11:07:57;;;;;;;;;15.75;11.50;;;;;18.54;100.00;102040.53;5051514;28;45449;-87
2021/11/20 11:10:33;;;;;;;;;22.25;15.00;;;;;18.54;100.00;102036.03;5052558;28;45537;-87
2021/11/20 11:13:16;;;;;;;;;26.25;18.00;;;;;18.52;100.00;102031.78;5057318;28;45359;-86
2021/11/20 11:16:08;;;;;;;;;19.75;15.00;;;;;18.46;100.00;102033.13;5055364;28;45913;-87
2021/11/20 11:18:48;;;;;;;;;18.75;13.50;;;;;18.45;100.00;102034.09;5056003;28;46299;-87
2021/11/20 11:21:22;;;;;;;;;17.00;14.50;;;;;18.48;100.00;102023.13;5059534;28;45414;-87
2021/11/20 11:24:18;;;;;;;;;28.25;16.25;;;;;18.40;100.00;102012.22;5059478;28;45270;-88
2021/11/20 11:26:54;;;;;;;;;17.25;13.00;;;;;18.41;100.00;102018.41;5061106;28;45173;-88